sensor_id;sensor_type;location;lat;lon;timestamp;P1;durP1;ratioP1;P2;durP2;ratioP2
11604;SDS011;5858;43.076;25.626;2022-11-20T00:01:56;8.55;;;2.92;;
11604;SDS011;5858;43.076;25.626;2022-11-20T00:05:03;6.45;;;3.40;;
11604;SDS011;5858;43.076;25.626;2022-11-20T00:08:14;12.73;;;3.78;;
11604;SDS011;5858;43.076;25.626;2022-11-20T00:14:53;8.25;;;3.25;;
11604;SDS011;5858;43.076;25.626;2022-11-20T00:17:55;6.88;;;3.08;;
11604;SDS011;5858;43.076;25.626;2022-11-20T00:20:52;10.27;;;2.70;;
11604;SDS011;5858;43.076;25.626;2022-11-20T00:23:58;5.03;;;3.00;;
11604;SDS011;5858;43.076;25.626;2022-11-20T00:36:42;7.43;;;2.78;;
11604;SDS011;5858;43.076;25.626;2022-11-20T00:39:44;7.88;;;2.97;;
11604;SDS011;5858;43.076;25.626;2022-11-20T00:42:44;8.27;;;2.80;;
11604;SDS011;5858;43.076;25.626;2022-11-20T00:46:12;8.13;;;2.95;;
11604;SDS011;5858;43.076;25.626;2022-11-20T00:49:25;6.40;;;2.55;;
11604;SDS011;5858;43.076;25.626;2022-11-20T00:52:25;4.72;;;2.33;;
11604;SDS011;5858;43.076;25.626;2022-11-20T00:55:11;9.50;;;2.67;;
11604;SDS011;5858;43.076;25.626;2022-11-20T00:58:17;8.38;;;2.80;;
11604;SDS011;5858;43.076;25.626;2022-11-20T01:01:28;7.82;;;2.42;;
11604;SDS011;5858;43.076;25.626;2022-11-20T01:07:05;6.97;;;2.58;;
11604;SDS011;5858;43.076;25.626;2022-11-20T01:10:11;7.43;;;2.47;;
11604;SDS011;5858;43.076;25.626;2022-11-20T01:12:53;7.43;;;2.63;;
11604;SDS011;5858;43.076;25.626;2022-11-20T01:16:02;9.13;;;2.45;;
11604;SDS011;5858;43.076;25.626;2022-11-20T01:18:43;4.82;;;2.15;;
11604;SDS011;5858;43.076;25.626;2022-11-20T01:21:24;6.28;;;2.67;;
11604;SDS011;5858;43.076;25.626;2022-11-20T01:24:37;3.72;;;1.85;;
11604;SDS011;5858;43.076;25.626;2022-11-20T01:27:43;7.47;;;2.33;;
11604;SDS011;5858;43.076;25.626;2022-11-20T01:37:06;5.63;;;2.35;;
11604;SDS011;5858;43.076;25.626;2022-11-20T01:43:30;5.85;;;2.60;;
11604;SDS011;5858;43.076;25.626;2022-11-20T01:47:26;5.10;;;2.28;;
11604;SDS011;5858;43.076;25.626;2022-11-20T01:50:34;6.63;;;2.63;;
11604;SDS011;5858;43.076;25.626;2022-11-20T01:53:31;6.78;;;2.33;;
11604;SDS011;5858;43.076;25.626;2022-11-20T01:56:40;7.70;;;2.40;;
11604;SDS011;5858;43.076;25.626;2022-11-20T01:59:47;7.43;;;2.17;;
11604;SDS011;5858;43.076;25.626;2022-11-20T02:03:13;4.50;;;2.55;;
11604;SDS011;5858;43.076;25.626;2022-11-20T02:10:00;9.60;;;2.88;;
11604;SDS011;5858;43.076;25.626;2022-11-20T02:12:57;3.85;;;2.08;;
11604;SDS011;5858;43.076;25.626;2022-11-20T02:19:29;7.43;;;2.65;;
11604;SDS011;5858;43.076;25.626;2022-11-20T02:28:26;8.20;;;2.15;;
11604;SDS011;5858;43.076;25.626;2022-11-20T02:31:44;6.10;;;2.40;;
11604;SDS011;5858;43.076;25.626;2022-11-20T02:35:07;5.90;;;2.25;;
11604;SDS011;5858;43.076;25.626;2022-11-20T02:38:30;5.25;;;1.98;;
11604;SDS011;5858;43.076;25.626;2022-11-20T02:48:33;6.93;;;2.20;;
11604;SDS011;5858;43.076;25.626;2022-11-20T02:51:34;5.22;;;2.47;;
11604;SDS011;5858;43.076;25.626;2022-11-20T02:54:46;5.20;;;2.55;;
11604;SDS011;5858;43.076;25.626;2022-11-20T02:57:38;3.53;;;2.10;;
11604;SDS011;5858;43.076;25.626;2022-11-20T03:00:25;8.13;;;2.45;;
11604;SDS011;5858;43.076;25.626;2022-11-20T03:03:36;5.65;;;2.00;;
11604;SDS011;5858;43.076;25.626;2022-11-20T03:13:10;6.22;;;2.08;;
11604;SDS011;5858;43.076;25.626;2022-11-20T03:19:44;6.47;;;2.30;;
11604;SDS011;5858;43.076;25.626;2022-11-20T03:22:58;7.13;;;1.98;;
11604;SDS011;5858;43.076;25.626;2022-11-20T03:25:49;8.25;;;2.22;;
11604;SDS011;5858;43.076;25.626;2022-11-20T03:32:47;7.45;;;2.35;;
11604;SDS011;5858;43.076;25.626;2022-11-20T03:37:59;4.18;;;1.88;;
11604;SDS011;5858;43.076;25.626;2022-11-20T03:41:05;6.10;;;2.47;;
11604;SDS011;5858;43.076;25.626;2022-11-20T03:43:55;8.95;;;2.20;;
11604;SDS011;5858;43.076;25.626;2022-11-20T03:53:52;4.32;;;2.10;;
11604;SDS011;5858;43.076;25.626;2022-11-20T03:56:58;8.77;;;2.25;;
11604;SDS011;5858;43.076;25.626;2022-11-20T03:59:51;3.20;;;1.50;;
11604;SDS011;5858;43.076;25.626;2022-11-20T04:02:41;4.97;;;1.90;;
11604;SDS011;5858;43.076;25.626;2022-11-20T04:05:10;9.23;;;2.45;;
11604;SDS011;5858;43.076;25.626;2022-11-20T04:10:18;5.00;;;2.00;;
11604;SDS011;5858;43.076;25.626;2022-11-20T04:29:19;5.75;;;1.90;;
11604;SDS011;5858;43.076;25.626;2022-11-20T04:45:53;7.18;;;2.17;;
11604;SDS011;5858;43.076;25.626;2022-11-20T04:49:12;8.85;;;2.10;;
11604;SDS011;5858;43.076;25.626;2022-11-20T05:13:47;5.55;;;1.60;;
11604;SDS011;5858;43.076;25.626;2022-11-20T05:16:30;4.97;;;1.98;;
11604;SDS011;5858;43.076;25.626;2022-11-20T05:18:59;4.53;;;1.75;;
11604;SDS011;5858;43.076;25.626;2022-11-20T05:22:16;3.75;;;1.50;;
11604;SDS011;5858;43.076;25.626;2022-11-20T05:28:13;4.18;;;2.00;;
11604;SDS011;5858;43.076;25.626;2022-11-20T05:29:00;3.63;;;1.65;;
11604;SDS011;5858;43.076;25.626;2022-11-20T05:31:58;8.43;;;2.20;;
11604;SDS011;5858;43.076;25.626;2022-11-20T05:35:10;3.80;;;1.50;;
11604;SDS011;5858;43.076;25.626;2022-11-20T05:37:53;4.93;;;1.70;;
11604;SDS011;5858;43.076;25.626;2022-11-20T05:41:00;4.35;;;1.20;;
11604;SDS011;5858;43.076;25.626;2022-11-20T05:44:13;4.40;;;1.88;;
11604;SDS011;5858;43.076;25.626;2022-11-20T05:50:14;4.88;;;1.48;;
11604;SDS011;5858;43.076;25.626;2022-11-20T05:52:41;2.33;;;1.50;;
11604;SDS011;5858;43.076;25.626;2022-11-20T05:55:08;5.65;;;1.90;;
11604;SDS011;5858;43.076;25.626;2022-11-20T05:57:35;7.40;;;2.05;;
11604;SDS011;5858;43.076;25.626;2022-11-20T06:00:09;10.05;;;2.00;;
11604;SDS011;5858;43.076;25.626;2022-11-20T06:02:53;6.03;;;1.48;;
11604;SDS011;5858;43.076;25.626;2022-11-20T06:05:23;2.88;;;1.55;;
11604;SDS011;5858;43.076;25.626;2022-11-20T06:07:50;4.75;;;1.88;;
11604;SDS011;5858;43.076;25.626;2022-11-20T06:10:17;3.40;;;1.90;;
11604;SDS011;5858;43.076;25.626;2022-11-20T06:12:44;5.30;;;2.55;;
11604;SDS011;5858;43.076;25.626;2022-11-20T06:15:20;7.90;;;3.05;;
11604;SDS011;5858;43.076;25.626;2022-11-20T06:17:51;5.65;;;3.17;;
11604;SDS011;5858;43.076;25.626;2022-11-20T06:20:18;6.50;;;3.63;;
11604;SDS011;5858;43.076;25.626;2022-11-20T06:22:47;7.20;;;4.25;;
11604;SDS011;5858;43.076;25.626;2022-11-20T06:25:14;10.63;;;4.82;;
11604;SDS011;5858;43.076;25.626;2022-11-20T06:27:51;8.50;;;5.22;;
11604;SDS011;5858;43.076;25.626;2022-11-20T06:30:21;7.60;;;5.32;;
11604;SDS011;5858;43.076;25.626;2022-11-20T06:33:09;12.65;;;6.72;;
11604;SDS011;5858;43.076;25.626;2022-11-20T06:35:39;7.70;;;4.65;;
11604;SDS011;5858;43.076;25.626;2022-11-20T06:38:07;5.50;;;3.58;;
11604;SDS011;5858;43.076;25.626;2022-11-20T06:40:34;5.53;;;3.28;;
11604;SDS011;5858;43.076;25.626;2022-11-20T06:43:07;4.45;;;3.50;;
11604;SDS011;5858;43.076;25.626;2022-11-20T06:45:47;5.65;;;3.55;;
11604;SDS011;5858;43.076;25.626;2022-11-20T06:48:32;6.20;;;3.92;;
11604;SDS011;5858;43.076;25.626;2022-11-20T06:51:02;7.15;;;4.10;;
11604;SDS011;5858;43.076;25.626;2022-11-20T06:53:45;6.00;;;4.63;;
11604;SDS011;5858;43.076;25.626;2022-11-20T06:56:20;6.00;;;4.20;;
11604;SDS011;5858;43.076;25.626;2022-11-20T06:58:47;6.95;;;5.65;;
11604;SDS011;5858;43.076;25.626;2022-11-20T07:01:21;8.52;;;6.90;;
11604;SDS011;5858;43.076;25.626;2022-11-20T07:03:48;9.27;;;7.90;;
11604;SDS011;5858;43.076;25.626;2022-11-20T07:06:16;10.77;;;8.57;;
11604;SDS011;5858;43.076;25.626;2022-11-20T07:08:47;13.10;;;9.83;;
11604;SDS011;5858;43.076;25.626;2022-11-20T07:11:17;11.50;;;9.93;;
11604;SDS011;5858;43.076;25.626;2022-11-20T07:13:44;13.63;;;10.43;;
11604;SDS011;5858;43.076;25.626;2022-11-20T07:16:50;15.73;;;11.20;;
11604;SDS011;5858;43.076;25.626;2022-11-20T07:19:27;18.50;;;12.93;;
11604;SDS011;5858;43.076;25.626;2022-11-20T07:22:23;17.37;;;11.80;;
11604;SDS011;5858;43.076;25.626;2022-11-20T07:25:36;17.80;;;13.23;;
11604;SDS011;5858;43.076;25.626;2022-11-20T07:28:31;18.50;;;12.73;;
11604;SDS011;5858;43.076;25.626;2022-11-20T07:31:08;17.00;;;12.80;;
11604;SDS011;5858;43.076;25.626;2022-11-20T07:33:43;19.20;;;13.83;;
11604;SDS011;5858;43.076;25.626;2022-11-20T07:36:09;19.70;;;12.73;;
11604;SDS011;5858;43.076;25.626;2022-11-20T07:38:37;20.20;;;14.13;;
11604;SDS011;5858;43.076;25.626;2022-11-20T07:41:24;21.63;;;14.00;;
11604;SDS011;5858;43.076;25.626;2022-11-20T07:44:03;20.70;;;13.73;;
11604;SDS011;5858;43.076;25.626;2022-11-20T07:47:11;25.57;;;14.40;;
11604;SDS011;5858;43.076;25.626;2022-11-20T07:49:48;21.37;;;14.67;;
11604;SDS011;5858;43.076;25.626;2022-11-20T07:52:15;23.13;;;14.70;;
11604;SDS011;5858;43.076;25.626;2022-11-20T07:54:54;21.43;;;14.53;;
11604;SDS011;5858;43.076;25.626;2022-11-20T07:57:55;25.30;;;14.93;;
11604;SDS011;5858;43.076;25.626;2022-11-20T08:00:41;20.00;;;12.60;;
11604;SDS011;5858;43.076;25.626;2022-11-20T08:03:45;23.43;;;13.90;;
11604;SDS011;5858;43.076;25.626;2022-11-20T08:06:13;17.77;;;12.63;;
11604;SDS011;5858;43.076;25.626;2022-11-20T08:08:44;21.93;;;13.90;;
11604;SDS011;5858;43.076;25.626;2022-11-20T08:11:16;24.47;;;13.73;;
11604;SDS011;5858;43.076;25.626;2022-11-20T08:14:06;23.90;;;13.87;;
11604;SDS011;5858;43.076;25.626;2022-11-20T08:16:50;21.30;;;14.07;;
11604;SDS011;5858;43.076;25.626;2022-11-20T08:19:23;18.43;;;13.43;;
11604;SDS011;5858;43.076;25.626;2022-11-20T08:22:26;19.53;;;13.50;;
11604;SDS011;5858;43.076;25.626;2022-11-20T08:25:14;18.33;;;13.07;;
11604;SDS011;5858;43.076;25.626;2022-11-20T08:31:38;20.47;;;13.40;;
11604;SDS011;5858;43.076;25.626;2022-11-20T08:34:15;21.53;;;13.60;;
11604;SDS011;5858;43.076;25.626;2022-11-20T08:37:20;20.17;;;13.67;;
11604;SDS011;5858;43.076;25.626;2022-11-20T08:43:40;23.10;;;14.20;;
11604;SDS011;5858;43.076;25.626;2022-11-20T08:46:41;21.10;;;14.10;;
11604;SDS011;5858;43.076;25.626;2022-11-20T08:49:27;23.20;;;15.33;;
11604;SDS011;5858;43.076;25.626;2022-11-20T08:55:33;25.37;;;16.10;;
11604;SDS011;5858;43.076;25.626;2022-11-20T08:58:02;22.47;;;15.73;;
11604;SDS011;5858;43.076;25.626;2022-11-20T09:00:38;22.20;;;15.87;;
11604;SDS011;5858;43.076;25.626;2022-11-20T09:03:07;26.57;;;16.70;;
11604;SDS011;5858;43.076;25.626;2022-11-20T09:05:34;67.67;;;36.50;;
11604;SDS011;5858;43.076;25.626;2022-11-20T09:08:03;26.37;;;17.43;;
11604;SDS011;5858;43.076;25.626;2022-11-20T09:10:30;21.40;;;16.23;;
11604;SDS011;5858;43.076;25.626;2022-11-20T09:13:13;25.50;;;17.43;;
11604;SDS011;5858;43.076;25.626;2022-11-20T09:15:40;26.40;;;17.53;;
11604;SDS011;5858;43.076;25.626;2022-11-20T09:18:08;26.03;;;16.77;;
11604;SDS011;5858;43.076;25.626;2022-11-20T09:20:36;21.53;;;16.13;;
11604;SDS011;5858;43.076;25.626;2022-11-20T09:23:05;20.93;;;15.37;;
11604;SDS011;5858;43.076;25.626;2022-11-20T09:25:31;26.57;;;16.20;;
11604;SDS011;5858;43.076;25.626;2022-11-20T09:28:12;25.87;;;16.03;;
11604;SDS011;5858;43.076;25.626;2022-11-20T09:30:39;29.93;;;16.27;;
11604;SDS011;5858;43.076;25.626;2022-11-20T09:33:06;28.93;;;18.23;;
11604;SDS011;5858;43.076;25.626;2022-11-20T09:35:35;25.40;;;17.50;;
11604;SDS011;5858;43.076;25.626;2022-11-20T09:38:06;25.00;;;16.43;;
11604;SDS011;5858;43.076;25.626;2022-11-20T09:40:36;23.33;;;16.17;;
11604;SDS011;5858;43.076;25.626;2022-11-20T09:43:07;22.47;;;15.17;;
11604;SDS011;5858;43.076;25.626;2022-11-20T09:46:14;24.20;;;15.33;;
11604;SDS011;5858;43.076;25.626;2022-11-20T09:49:14;24.17;;;14.77;;
11604;SDS011;5858;43.076;25.626;2022-11-20T09:51:58;28.90;;;14.70;;
11604;SDS011;5858;43.076;25.626;2022-11-20T09:57:25;22.33;;;15.03;;
11604;SDS011;5858;43.076;25.626;2022-11-20T10:00:14;22.97;;;15.50;;
11604;SDS011;5858;43.076;25.626;2022-11-20T10:02:43;18.93;;;14.87;;
11604;SDS011;5858;43.076;25.626;2022-11-20T10:05:15;21.27;;;14.37;;
11604;SDS011;5858;43.076;25.626;2022-11-20T10:07:47;22.10;;;14.27;;
11604;SDS011;5858;43.076;25.626;2022-11-20T10:10:26;22.63;;;13.67;;
11604;SDS011;5858;43.076;25.626;2022-11-20T10:13:07;27.20;;;13.70;;
11604;SDS011;5858;43.076;25.626;2022-11-20T10:15:53;20.60;;;13.83;;
11604;SDS011;5858;43.076;25.626;2022-11-20T10:18:44;21.77;;;13.07;;
11604;SDS011;5858;43.076;25.626;2022-11-20T10:21:25;20.40;;;14.07;;
11604;SDS011;5858;43.076;25.626;2022-11-20T10:24:15;22.13;;;13.73;;
11604;SDS011;5858;43.076;25.626;2022-11-20T10:27:22;18.90;;;12.43;;
11604;SDS011;5858;43.076;25.626;2022-11-20T10:30:28;19.63;;;13.37;;
11604;SDS011;5858;43.076;25.626;2022-11-20T10:33:29;20.47;;;14.00;;
11604;SDS011;5858;43.076;25.626;2022-11-20T10:36:12;20.27;;;13.13;;
11604;SDS011;5858;43.076;25.626;2022-11-20T10:39:05;20.57;;;14.40;;
11604;SDS011;5858;43.076;25.626;2022-11-20T10:42:00;22.70;;;14.67;;
11604;SDS011;5858;43.076;25.626;2022-11-20T10:44:29;22.23;;;14.03;;
11604;SDS011;5858;43.076;25.626;2022-11-20T10:47:25;20.60;;;13.33;;
11604;SDS011;5858;43.076;25.626;2022-11-20T10:50:01;21.77;;;13.93;;
11604;SDS011;5858;43.076;25.626;2022-11-20T10:52:42;20.07;;;13.67;;
11604;SDS011;5858;43.076;25.626;2022-11-20T10:55:29;17.70;;;12.87;;
11604;SDS011;5858;43.076;25.626;2022-11-20T10:58:20;21.60;;;13.20;;
11604;SDS011;5858;43.076;25.626;2022-11-20T11:01:11;21.37;;;14.20;;
11604;SDS011;5858;43.076;25.626;2022-11-20T11:04:03;32.47;;;18.93;;
11604;SDS011;5858;43.076;25.626;2022-11-20T11:07:27;21.43;;;14.63;;
11604;SDS011;5858;43.076;25.626;2022-11-20T11:13:23;19.63;;;13.83;;
11604;SDS011;5858;43.076;25.626;2022-11-20T11:16:27;19.33;;;13.33;;
11604;SDS011;5858;43.076;25.626;2022-11-20T11:19:07;18.27;;;12.93;;
11604;SDS011;5858;43.076;25.626;2022-11-20T11:25:11;17.57;;;12.97;;
11604;SDS011;5858;43.076;25.626;2022-11-20T11:27:58;20.57;;;13.60;;
11604;SDS011;5858;43.076;25.626;2022-11-20T11:30:41;21.07;;;13.37;;
11604;SDS011;5858;43.076;25.626;2022-11-20T11:39:13;18.97;;;13.30;;
11604;SDS011;5858;43.076;25.626;2022-11-20T11:42:10;19.67;;;12.37;;
11604;SDS011;5858;43.076;25.626;2022-11-20T11:45:56;19.47;;;12.33;;
11604;SDS011;5858;43.076;25.626;2022-11-20T11:48:18;18.67;;;12.60;;
11604;SDS011;5858;43.076;25.626;2022-11-20T11:50:51;18.23;;;11.70;;
11604;SDS011;5858;43.076;25.626;2022-11-20T11:53:40;18.63;;;11.83;;
11604;SDS011;5858;43.076;25.626;2022-11-20T11:56:20;19.30;;;12.23;;
11604;SDS011;5858;43.076;25.626;2022-11-20T11:58:50;18.57;;;12.30;;
11604;SDS011;5858;43.076;25.626;2022-11-20T12:01:27;18.03;;;12.90;;
11604;SDS011;5858;43.076;25.626;2022-11-20T12:04:10;19.35;;;15.30;;
11604;SDS011;5858;43.076;25.626;2022-11-20T12:06:45;22.43;;;15.03;;
11604;SDS011;5858;43.076;25.626;2022-11-20T12:09:17;19.37;;;13.77;;
11604;SDS011;5858;43.076;25.626;2022-11-20T12:11:51;24.50;;;15.60;;
11604;SDS011;5858;43.076;25.626;2022-11-20T12:14:39;23.60;;;16.33;;
11604;SDS011;5858;43.076;25.626;2022-11-20T12:17:27;26.00;;;17.40;;
11604;SDS011;5858;43.076;25.626;2022-11-20T12:20:17;25.30;;;17.47;;
11604;SDS011;5858;43.076;25.626;2022-11-20T12:23:01;28.93;;;18.30;;
11604;SDS011;5858;43.076;25.626;2022-11-20T12:25:48;28.57;;;18.87;;
11604;SDS011;5858;43.076;25.626;2022-11-20T12:28:29;27.70;;;16.60;;
11604;SDS011;5858;43.076;25.626;2022-11-20T12:31:17;22.43;;;15.33;;
11604;SDS011;5858;43.076;25.626;2022-11-20T12:37:16;21.50;;;15.07;;
11604;SDS011;5858;43.076;25.626;2022-11-20T12:39:51;20.03;;;15.67;;
11604;SDS011;5858;43.076;25.626;2022-11-20T12:42:31;19.90;;;14.83;;
11604;SDS011;5858;43.076;25.626;2022-11-20T12:46:00;17.03;;;13.13;;
11604;SDS011;5858;43.076;25.626;2022-11-20T12:48:41;18.87;;;13.83;;
11604;SDS011;5858;43.076;25.626;2022-11-20T12:51:21;19.67;;;13.90;;
11604;SDS011;5858;43.076;25.626;2022-11-20T12:54:08;21.43;;;15.83;;
11604;SDS011;5858;43.076;25.626;2022-11-20T12:56:55;23.23;;;16.00;;
11604;SDS011;5858;43.076;25.626;2022-11-20T12:59:33;23.47;;;16.83;;
11604;SDS011;5858;43.076;25.626;2022-11-20T13:02:18;22.57;;;15.93;;
11604;SDS011;5858;43.076;25.626;2022-11-20T13:05:05;26.83;;;16.70;;
11604;SDS011;5858;43.076;25.626;2022-11-20T13:07:46;24.47;;;16.43;;
11604;SDS011;5858;43.076;25.626;2022-11-20T13:10:22;23.60;;;17.20;;
11604;SDS011;5858;43.076;25.626;2022-11-20T13:13:01;27.87;;;17.83;;
11604;SDS011;5858;43.076;25.626;2022-11-20T13:15:43;24.70;;;17.10;;
11604;SDS011;5858;43.076;25.626;2022-11-20T13:21:35;24.07;;;18.30;;
11604;SDS011;5858;43.076;25.626;2022-11-20T13:24:22;25.07;;;17.67;;
11604;SDS011;5858;43.076;25.626;2022-11-20T13:34:25;28.07;;;18.80;;
11604;SDS011;5858;43.076;25.626;2022-11-20T14:07:41;23.07;;;16.27;;
11604;SDS011;5858;43.076;25.626;2022-11-20T14:45:00;27.10;;;18.33;;
11604;SDS011;5858;43.076;25.626;2022-11-20T14:47:17;18.23;;;12.47;;
11604;SDS011;5858;43.076;25.626;2022-11-20T14:53:08;20.10;;;10.97;;
11604;SDS011;5858;43.076;25.626;2022-11-20T14:55:36;13.43;;;8.80;;
11604;SDS011;5858;43.076;25.626;2022-11-20T15:01:28;7.77;;;5.63;;
11604;SDS011;5858;43.076;25.626;2022-11-20T15:04:01;9.57;;;5.73;;
11604;SDS011;5858;43.076;25.626;2022-11-20T15:10:22;9.43;;;6.30;;
11604;SDS011;5858;43.076;25.626;2022-11-20T15:13:20;8.37;;;6.63;;
11604;SDS011;5858;43.076;25.626;2022-11-20T15:16:00;9.77;;;8.10;;
11604;SDS011;5858;43.076;25.626;2022-11-20T15:18:55;7.77;;;6.47;;
11604;SDS011;5858;43.076;25.626;2022-11-20T15:22:02;13.30;;;8.50;;
11604;SDS011;5858;43.076;25.626;2022-11-20T15:25:24;10.07;;;7.47;;
11604;SDS011;5858;43.076;25.626;2022-11-20T16:22:58;14.03;;;11.60;;
11604;SDS011;5858;43.076;25.626;2022-11-20T16:25:40;13.50;;;10.23;;
11604;SDS011;5858;43.076;25.626;2022-11-20T16:32:50;16.57;;;12.73;;
11604;SDS011;5858;43.076;25.626;2022-11-20T16:36:55;15.87;;;13.13;;
11604;SDS011;5858;43.076;25.626;2022-11-20T16:52:07;10.83;;;9.13;;
11604;SDS011;5858;43.076;25.626;2022-11-20T16:55:15;16.60;;;14.80;;
11604;SDS011;5858;43.076;25.626;2022-11-20T17:05:28;13.33;;;9.13;;
11604;SDS011;5858;43.076;25.626;2022-11-20T17:12:10;16.20;;;12.43;;
11604;SDS011;5858;43.076;25.626;2022-11-20T17:18:39;16.87;;;13.17;;
11604;SDS011;5858;43.076;25.626;2022-11-20T17:21:23;13.97;;;10.57;;
11604;SDS011;5858;43.076;25.626;2022-11-20T17:28:01;14.20;;;11.63;;
11604;SDS011;5858;43.076;25.626;2022-11-20T17:30:42;14.90;;;11.27;;
11604;SDS011;5858;43.076;25.626;2022-11-20T17:33:56;13.23;;;9.13;;
11604;SDS011;5858;43.076;25.626;2022-11-20T17:36:43;13.37;;;8.87;;
11604;SDS011;5858;43.076;25.626;2022-11-20T17:39:25;75.87;;;27.77;;
11604;SDS011;5858;43.076;25.626;2022-11-20T17:42:27;21.50;;;12.60;;
11604;SDS011;5858;43.076;25.626;2022-11-20T17:45:02;52.33;;;23.70;;
11604;SDS011;5858;43.076;25.626;2022-11-20T17:47:33;68.07;;;30.00;;
11604;SDS011;5858;43.076;25.626;2022-11-20T17:50:03;35.73;;;18.07;;
11604;SDS011;5858;43.076;25.626;2022-11-20T17:52:36;17.40;;;11.33;;
11604;SDS011;5858;43.076;25.626;2022-11-20T17:55:04;10.73;;;9.03;;
11604;SDS011;5858;43.076;25.626;2022-11-20T17:57:35;11.37;;;8.73;;
11604;SDS011;5858;43.076;25.626;2022-11-20T18:03:10;52.77;;;21.27;;
11604;SDS011;5858;43.076;25.626;2022-11-20T18:09:02;10.50;;;8.47;;
11604;SDS011;5858;43.076;25.626;2022-11-20T18:14:34;12.27;;;10.63;;
11604;SDS011;5858;43.076;25.626;2022-11-20T18:17:09;14.33;;;11.53;;
11604;SDS011;5858;43.076;25.626;2022-11-20T18:19:47;13.17;;;10.63;;
11604;SDS011;5858;43.076;25.626;2022-11-20T18:22:38;12.93;;;10.37;;
11604;SDS011;5858;43.076;25.626;2022-11-20T18:25:23;14.50;;;10.43;;
11604;SDS011;5858;43.076;25.626;2022-11-20T18:27:54;12.50;;;10.93;;
11604;SDS011;5858;43.076;25.626;2022-11-20T18:33:11;13.97;;;10.70;;
11604;SDS011;5858;43.076;25.626;2022-11-20T18:36:54;13.87;;;10.63;;
11604;SDS011;5858;43.076;25.626;2022-11-20T18:41:58;14.67;;;10.87;;
11604;SDS011;5858;43.076;25.626;2022-11-20T18:43:08;16.33;;;12.20;;
11604;SDS011;5858;43.076;25.626;2022-11-20T20:50:11;12.63;;;9.00;;
11604;SDS011;5858;43.076;25.626;2022-11-20T20:56:46;11.97;;;8.63;;
11604;SDS011;5858;43.076;25.626;2022-11-20T20:59:55;12.07;;;8.77;;
11604;SDS011;5858;43.076;25.626;2022-11-20T21:03:22;12.70;;;9.33;;
11604;SDS011;5858;43.076;25.626;2022-11-20T21:06:35;12.67;;;8.90;;
11604;SDS011;5858;43.076;25.626;2022-11-20T21:09:31;12.47;;;8.07;;
11604;SDS011;5858;43.076;25.626;2022-11-20T21:15:37;17.27;;;9.47;;
11604;SDS011;5858;43.076;25.626;2022-11-20T21:21:59;14.80;;;10.83;;
11604;SDS011;5858;43.076;25.626;2022-11-20T21:24:54;16.23;;;11.33;;
11604;SDS011;5858;43.076;25.626;2022-11-20T21:27:40;15.10;;;11.17;;
11604;SDS011;5858;43.076;25.626;2022-11-20T21:31:08;16.30;;;12.47;;
11604;SDS011;5858;43.076;25.626;2022-11-20T21:40:44;15.37;;;11.60;;
11604;SDS011;5858;43.076;25.626;2022-11-20T21:43:34;16.87;;;12.17;;
11604;SDS011;5858;43.076;25.626;2022-11-20T21:47:57;17.97;;;12.40;;
11604;SDS011;5858;43.076;25.626;2022-11-20T21:49:49;14.67;;;11.30;;
11604;SDS011;5858;43.076;25.626;2022-11-20T21:52:25;16.83;;;11.73;;
11604;SDS011;5858;43.076;25.626;2022-11-20T21:56:52;20.50;;;13.67;;
11604;SDS011;5858;43.076;25.626;2022-11-20T22:09:34;13.57;;;8.90;;
11604;SDS011;5858;43.076;25.626;2022-11-20T23:02:47;6.33;;;5.13;;
11604;SDS011;5858;43.076;25.626;2022-11-20T23:06:40;5.83;;;5.20;;
11604;SDS011;5858;43.076;25.626;2022-11-20T23:13:04;7.10;;;5.33;;
11604;SDS011;5858;43.076;25.626;2022-11-20T23:26:23;8.63;;;4.80;;
11604;SDS011;5858;43.076;25.626;2022-11-20T23:42:59;14.33;;;7.47;;
11604;SDS011;5858;43.076;25.626;2022-11-20T23:50:41;16.57;;;7.67;;
11604;SDS011;5858;43.076;25.626;2022-11-20T23:57:05;11.47;;;7.00;;
